METAR Formatted Surface Weather Observation
Issued by NWS

Home | Current Version | Previous Version | Text Only | Print | Product List | Glossary On
Versions: 1 2 3 4
000
SPZS31 NSTU 300913
MTRSPP
SPECI NSTU 300912Z 10014G24KT 1/2SM +SHRA VV006 25/25 A2987=


USA.gov is the U.S. government's official web portal to all federal, state and local government web resources and services.